Time;durP1;ratioP1;P1;durP2;ratioP2;P2;SDS_P1;SDS_P2;PMS_P1;PMS_P2;Temp;Humidity;BMP_temperature;BMP_pressure;BME280_temperature;BME280_humidity;BME280_pressure;Samples;Min_cycle;Max_cycle;Signal;HPM_P1;HPM_P2
2022/05/11 00:00:59;;;;;;;20.00;12.00;;;11.80;99.90;;;;;;5052788;28;20405;-67
2022/05/11 00:03:25;;;;;;;18.50;12.37;;;11.80;99.90;;;;;;5047855;28;20431;-63
2022/05/11 00:05:51;;;;;;;16.23;10.70;;;11.80;99.90;;;;;;5033999;28;20369;-63
2022/05/11 00:08:17;;;;;;;19.50;12.73;;;11.80;99.90;;;;;;5038135;28;20424;-63
2022/05/11 00:10:42;;;;;;;21.40;12.50;;;11.80;99.90;;;;;;5055329;28;20174;-68
2022/05/11 00:13:08;;;;;;;22.07;12.90;;;11.80;99.90;;;;;;5055611;28;20187;-64
2022/05/11 00:15:35;;;;;;;20.93;12.13;;;11.80;99.90;;;;;;5036124;28;20250;-68
2022/05/11 00:18:01;;;;;;;22.13;12.63;;;11.90;99.90;;;;;;5038643;28;20199;-63
2022/05/11 00:20:27;;;;;;;19.53;12.40;;;11.90;99.90;;;;;;5035873;28;20427;-65
2022/05/11 00:22:58;;;;;;;18.47;12.10;;;11.90;99.90;;;;;;5035943;28;20397;-68
2022/05/11 00:25:26;;;;;;;18.70;13.77;;;11.90;99.90;;;;;;5035873;28;20452;-63
2022/05/11 00:27:56;;;;;;;22.60;14.37;;;11.90;99.90;;;;;;5036910;28;20457;-63
2022/05/11 00:30:23;;;;;;;23.17;14.20;;;11.90;99.90;;;;;;5035026;28;20421;-68
2022/05/11 00:32:52;;;;;;;21.50;14.70;;;11.90;99.90;;;;;;5036993;28;20797;-67
2022/05/11 00:35:18;;;;;;;26.37;13.70;;;11.90;99.90;;;;;;5036013;28;20398;-63
2022/05/11 00:37:43;;;;;;;27.43;14.47;;;11.90;99.90;;;;;;5049373;28;20399;-63
2022/05/11 00:40:09;;;;;;;18.73;14.63;;;11.90;99.90;;;;;;5054343;28;20253;-66
2022/05/11 00:42:35;;;;;;;23.10;14.03;;;11.90;99.90;;;;;;5043270;28;20668;-67
2022/05/11 00:45:01;;;;;;;21.67;14.47;;;11.90;99.90;;;;;;5035742;28;20372;-67
2022/05/11 00:47:50;;;;;;;23.20;12.77;;;11.90;99.90;;;;;;5045689;28;20186;-63
2022/05/11 00:50:21;;;;;;;20.23;13.47;;;11.90;99.90;;;;;;5054636;28;20372;-67
2022/05/11 00:52:52;;;;;;;28.60;13.13;;;11.90;99.90;;;;;;5042638;28;20405;-65
2022/05/11 00:55:24;;;;;;;27.20;14.83;;;11.80;99.90;;;;;;5035017;28;20472;-70
2022/05/11 00:58:09;;;;;;;31.60;16.53;;;11.80;99.90;;;;;;5047230;28;20421;-68
2022/05/11 01:00:36;;;;;;;23.10;14.20;;;11.90;99.90;;;;;;5054456;28;20387;-70
2022/05/11 01:03:20;;;;;;;23.10;15.40;;;11.90;99.90;;;;;;5040518;28;20436;-70
2022/05/11 01:05:47;;;;;;;28.97;15.30;;;11.90;99.90;;;;;;5037691;28;20393;-70
2022/05/11 01:08:14;;;;;;;21.27;15.20;;;11.90;99.90;;;;;;5055082;28;20449;-67
2022/05/11 01:10:41;;;;;;;19.93;14.57;;;11.90;99.90;;;;;;5052699;28;20394;-63
2022/05/11 01:13:10;;;;;;;21.77;13.90;;;11.90;99.90;;;;;;5034669;28;20392;-63
2022/05/11 01:15:37;;;;;;;19.90;14.90;;;12.00;99.90;;;;;;5034988;28;20489;-69
2022/05/11 01:18:05;;;;;;;23.93;16.93;;;12.00;99.90;;;;;;5033872;28;20471;-66
2022/05/11 01:20:33;;;;;;;20.83;14.33;;;12.00;99.90;;;;;;5034061;28;20392;-70
2022/05/11 01:23:16;;;;;;;23.37;15.33;;;12.00;99.90;;;;;;5053597;28;20412;-63
2022/05/11 01:25:42;;;;;;;18.30;13.73;;;12.00;99.90;;;;;;5054754;28;20430;-66
2022/05/11 01:28:11;;;;;;;24.70;15.70;;;12.00;99.90;;;;;;5035071;28;20466;-68
2022/05/11 01:30:42;;;;;;;24.77;15.07;;;12.10;99.90;;;;;;5034556;28;20373;-66
2022/05/11 01:33:12;;;;;;;24.40;14.90;;;12.10;99.90;;;;;;5034716;28;20425;-63
2022/05/11 01:35:57;;;;;;;27.90;14.80;;;12.10;99.90;;;;;;5036086;28;20394;-70
2022/05/11 01:38:42;;;;;;;25.57;13.53;;;12.10;99.90;;;;;;5054466;28;20380;-63
2022/05/11 01:41:12;;;;;;;22.57;14.33;;;12.10;99.90;;;;;;5049032;28;20397;-69
2022/05/11 01:43:40;;;;;;;19.73;13.40;;;12.10;99.90;;;;;;5034587;28;20468;-67
2022/05/11 01:46:06;;;;;;;20.10;13.40;;;12.10;99.90;;;;;;5037698;28;20804;-63
2022/05/11 01:48:32;;;;;;;22.07;14.53;;;12.10;99.90;;;;;;5033620;28;20460;-66
2022/05/11 01:50:58;;;;;;;22.17;14.10;;;12.10;99.90;;;;;;5033878;28;20405;-66
2022/05/11 01:53:25;;;;;;;23.97;13.70;;;12.20;99.90;;;;;;5039301;28;20399;-63
2022/05/11 01:55:50;;;;;;;17.60;13.57;;;12.20;99.90;;;;;;5054341;28;20369;-63
2022/05/11 01:58:17;;;;;;;18.60;13.37;;;12.10;99.90;;;;;;5050311;28;21007;-67
2022/05/11 02:00:46;;;;;;;21.60;14.50;;;12.20;99.90;;;;;;5033409;28;20642;-68
2022/05/11 02:03:12;;;;;;;25.57;12.57;;;12.20;99.90;;;;;;5036145;28;21213;-67
2022/05/11 02:08:23;;;;;;;21.23;13.90;;;12.20;99.90;;;;;;5049765;28;21023;-69
2022/05/11 02:10:49;;;;;;;15.97;12.20;;;12.30;99.90;;;;;;5033152;28;20889;-63
2022/05/11 02:13:15;;;;;;;26.73;14.80;;;12.20;99.90;;;;;;5034139;28;20434;-63
2022/05/11 02:15:41;;;;;;;18.10;12.57;;;12.20;99.90;;;;;;5053873;28;20221;-63
2022/05/11 02:18:07;;;;;;;17.47;12.70;;;12.20;99.90;;;;;;5045070;28;20426;-65
2022/05/11 02:20:33;;;;;;;16.50;12.30;;;12.30;99.90;;;;;;5032934;28;20194;-63
2022/05/11 02:22:59;;;;;;;20.37;13.00;;;12.30;99.90;;;;;;5040278;28;20491;-63
2022/05/11 02:25:25;;;;;;;23.90;12.57;;;12.20;99.90;;;;;;5053727;28;20382;-67
2022/05/11 02:27:52;;;;;;;21.93;13.47;;;12.30;99.90;;;;;;5047874;28;20450;-63
2022/05/11 02:30:30;;;;;;;15.50;11.77;;;12.30;99.90;;;;;;5032564;28;20373;-66
2022/05/11 02:32:57;;;;;;;22.17;12.43;;;12.30;99.90;;;;;;5038485;28;20407;-63
2022/05/11 02:35:24;;;;;;;24.50;13.20;;;12.30;99.90;;;;;;5053664;28;20373;-62
2022/05/11 02:37:53;;;;;;;24.87;14.87;;;12.30;99.90;;;;;;5049582;28;20392;-67
2022/05/11 02:40:22;;;;;;;28.67;13.43;;;12.40;99.90;;;;;;5032827;28;20378;-65
2022/05/11 02:42:47;;;;;;;18.23;13.07;;;12.40;99.90;;;;;;5036465;28;20994;-68
2022/05/11 02:45:14;;;;;;;22.40;12.60;;;12.40;99.90;;;;;;5033826;28;20461;-65
2022/05/11 02:47:41;;;;;;;21.57;14.67;;;12.40;99.90;;;;;;5033224;28;20667;-70
2022/05/11 02:50:08;;;;;;;23.33;13.87;;;12.50;99.90;;;;;;5032609;28;20417;-65
2022/05/11 02:52:34;;;;;;;21.00;12.67;;;12.40;99.90;;;;;;5036747;28;20468;-63
2022/05/11 02:55:00;;;;;;;20.87;13.10;;;12.40;99.90;;;;;;5053371;28;20368;-63
2022/05/11 02:57:26;;;;;;;19.10;12.60;;;12.50;99.90;;;;;;5050975;28;20466;-63
2022/05/11 02:59:52;;;;;;;22.50;12.97;;;12.50;99.90;;;;;;5042042;28;20462;-70
2022/05/11 03:02:21;;;;;;;18.10;12.60;;;12.40;99.90;;;;;;5053267;28;20195;-69
2022/05/11 03:04:48;;;;;;;18.33;12.30;;;12.40;99.90;;;;;;5051855;28;20422;-66
2022/05/11 03:07:13;;;;;;;18.63;14.17;;;12.40;99.90;;;;;;5053231;28;20440;-69
2022/05/11 03:09:39;;;;;;;18.87;13.20;;;12.40;99.90;;;;;;5035053;28;20464;-70
2022/05/11 03:12:05;;;;;;;19.40;12.00;;;12.40;99.90;;;;;;5033201;28;20631;-69
2022/05/11 03:14:31;;;;;;;18.80;12.60;;;12.40;99.90;;;;;;5048261;28;20225;-63
2022/05/11 03:16:57;;;;;;;18.00;13.10;;;12.40;99.90;;;;;;5052938;28;20445;-69
2022/05/11 03:19:23;;;;;;;19.47;13.90;;;12.50;99.90;;;;;;5038492;28;20568;-69
2022/05/11 03:21:48;;;;;;;19.67;13.50;;;12.40;99.90;;;;;;5033093;28;20388;-69
2022/05/11 03:24:14;;;;;;;20.87;14.20;;;12.50;99.90;;;;;;5044417;28;20182;-63
2022/05/11 03:26:40;;;;;;;15.67;12.50;;;12.50;99.90;;;;;;5052733;28;20229;-66
2022/05/11 03:29:06;;;;;;;25.70;14.07;;;12.50;99.90;;;;;;5041548;28;20198;-66
2022/05/11 03:31:33;;;;;;;20.00;14.10;;;12.60;99.90;;;;;;5033227;28;20377;-65
2022/05/11 03:36:43;;;;;;;20.80;12.87;;;12.50;99.90;;;;;;5052931;28;20363;-68
2022/05/11 03:39:10;;;;;;;18.13;12.53;;;12.60;99.90;;;;;;5042080;28;20426;-66
2022/05/11 03:41:36;;;;;;;17.40;11.73;;;12.60;99.90;;;;;;5035371;28;20172;-65
2022/05/11 03:44:02;;;;;;;16.80;11.70;;;12.60;99.90;;;;;;5044182;28;20413;-70
2022/05/11 03:46:28;;;;;;;19.17;13.00;;;12.70;99.90;;;;;;5056975;28;20372;-70
2022/05/11 03:48:53;;;;;;;19.97;12.30;;;12.70;99.90;;;;;;5047972;28;20454;-66
2022/05/11 03:51:19;;;;;;;18.73;13.43;;;12.70;99.90;;;;;;5036689;28;20250;-63
2022/05/11 03:53:44;;;;;;;20.87;13.47;;;12.70;99.90;;;;;;5040878;28;20197;-66
2022/05/11 03:56:10;;;;;;;21.13;14.27;;;12.70;99.90;;;;;;5056921;28;20166;-63
2022/05/11 03:58:36;;;;;;;21.53;12.63;;;12.70;99.90;;;;;;5047530;28;20715;-68
2022/05/11 04:01:01;;;;;;;25.87;13.83;;;12.70;99.90;;;;;;5034854;28;20171;-66
2022/05/11 04:03:27;;;;;;;17.73;13.80;;;12.70;99.90;;;;;;5040627;28;20281;-65
2022/05/11 04:05:53;;;;;;;15.67;13.87;;;12.70;99.90;;;;;;5056653;28;20646;-65
2022/05/11 04:08:18;;;;;;;20.33;12.83;;;12.70;99.90;;;;;;5051833;28;20221;-65
2022/05/11 04:10:44;;;;;;;23.17;12.57;;;12.70;99.90;;;;;;5035386;28;20443;-65
2022/05/11 04:13:10;;;;;;;21.87;12.83;;;12.70;99.90;;;;;;5039175;28;20227;-65
2022/05/11 04:15:36;;;;;;;19.47;13.90;;;12.70;99.90;;;;;;5036193;28;20175;-65
2022/05/11 04:18:02;;;;;;;23.70;13.77;;;12.70;99.90;;;;;;5036464;28;20410;-69
2022/05/11 04:20:27;;;;;;;18.63;13.30;;;12.70;99.90;;;;;;5034880;28;20259;-65
2022/05/11 04:22:55;;;;;;;15.97;12.10;;;12.80;99.90;;;;;;5037073;28;20197;-69
2022/05/11 04:25:20;;;;;;;18.50;12.13;;;12.90;99.90;;;;;;5055900;28;20201;-63
2022/05/11 04:27:48;;;;;;;23.80;12.80;;;12.90;99.90;;;;;;5055364;28;20419;-64
2022/05/11 04:30:15;;;;;;;17.50;12.67;;;12.90;99.90;;;;;;5035159;28;21006;-65
2022/05/11 04:32:41;;;;;;;27.53;13.40;;;12.90;99.90;;;;;;5035914;28;20408;-70
2022/05/11 04:35:07;;;;;;;14.93;11.20;;;12.90;99.90;;;;;;5052889;28;20392;-69
2022/05/11 04:37:33;;;;;;;14.63;11.80;;;13.00;99.90;;;;;;5050461;28;20172;-67
2022/05/11 04:39:58;;;;;;;25.40;12.07;;;13.00;99.90;;;;;;5034591;28;20756;-70
2022/05/11 04:42:24;;;;;;;17.97;12.97;;;13.00;99.90;;;;;;5038237;28;20202;-70
2022/05/11 04:44:52;;;;;;;18.97;12.50;;;13.10;99.90;;;;;;5054685;28;20516;-65
2022/05/11 04:47:18;;;;;;;15.87;12.27;;;13.10;99.90;;;;;;5054002;28;20159;-70
2022/05/11 04:49:43;;;;;;;16.77;10.70;;;13.20;99.90;;;;;;5034529;28;20929;-70
2022/05/11 04:52:15;;;;;;;20.33;11.57;;;13.20;99.90;;;;;;5035384;28;20743;-71
2022/05/11 04:54:43;;;;;;;16.03;11.57;;;13.20;99.90;;;;;;5034999;28;20163;-66
2022/05/11 04:57:10;;;;;;;18.07;12.17;;;13.20;99.90;;;;;;5035593;28;20497;-66
2022/05/11 04:59:38;;;;;;;19.33;11.83;;;13.20;99.90;;;;;;5053448;28;20400;-72
2022/05/11 05:02:04;;;;;;;18.00;12.00;;;13.20;99.90;;;;;;5048998;28;20442;-66
2022/05/11 05:04:31;;;;;;;17.90;11.53;;;13.20;99.90;;;;;;5035267;28;20400;-69
2022/05/11 05:06:57;;;;;;;20.33;13.83;;;13.20;99.90;;;;;;5039411;28;20392;-69
2022/05/11 05:09:23;;;;;;;16.10;11.50;;;13.20;99.90;;;;;;5054265;28;20424;-65
2022/05/11 05:11:49;;;;;;;20.57;13.10;;;13.30;99.90;;;;;;5051475;28;20171;-66
2022/05/11 05:14:15;;;;;;;19.73;11.53;;;13.30;99.90;;;;;;5035145;28;20407;-69
2022/05/11 05:16:41;;;;;;;22.30;13.83;;;13.30;99.90;;;;;;5034889;28;20396;-66
2022/05/11 05:19:07;;;;;;;18.83;13.90;;;13.30;99.90;;;;;;5034131;28;20381;-66
2022/05/11 05:21:33;;;;;;;18.53;13.63;;;13.30;99.90;;;;;;5036503;28;20225;-70
2022/05/11 05:24:00;;;;;;;16.53;11.50;;;13.40;99.90;;;;;;5054718;28;20380;-66
2022/05/11 05:26:26;;;;;;;19.63;13.33;;;13.40;99.90;;;;;;5042901;28;20430;-65
2022/05/11 05:31:36;;;;;;;18.87;14.93;;;13.50;99.90;;;;;;5046645;28;20927;-68
2022/05/11 05:34:02;;;;;;;25.70;15.43;;;13.40;99.90;;;;;;5051535;28;20397;-66
2022/05/11 05:36:29;;;;;;;19.47;14.27;;;13.50;99.90;;;;;;5034685;28;20164;-70
2022/05/11 05:38:55;;;;;;;23.93;15.60;;;13.50;99.90;;;;;;5033962;28;20598;-65
2022/05/11 05:41:21;;;;;;;27.37;17.10;;;13.50;99.90;;;;;;5034583;28;20529;-70
2022/05/11 05:43:47;;;;;;;29.17;17.47;;;13.40;99.90;;;;;;5034606;28;20187;-66
2022/05/11 05:46:16;;;;;;;19.90;15.43;;;13.40;99.90;;;;;;5034553;28;20432;-69
2022/05/11 05:48:42;;;;;;;26.00;17.43;;;13.40;99.90;;;;;;5033305;28;20219;-71
2022/05/11 05:51:09;;;;;;;25.47;15.60;;;13.40;99.90;;;;;;5034636;28;20428;-70
2022/05/11 05:53:36;;;;;;;24.80;15.83;;;13.50;99.90;;;;;;5034311;28;20219;-70
2022/05/11 05:56:02;;;;;;;24.60;17.20;;;13.40;99.90;;;;;;5033154;28;20781;-68
2022/05/11 05:58:28;;;;;;;25.23;16.37;;;13.40;99.90;;;;;;5032671;28;20396;-69
2022/05/11 06:00:54;;;;;;;26.40;16.60;;;13.40;99.90;;;;;;5034229;28;20811;-69
2022/05/11 06:03:23;;;;;;;27.07;15.43;;;13.50;99.90;;;;;;5033203;28;20454;-70
2022/05/11 06:05:49;;;;;;;29.00;17.10;;;13.50;99.90;;;;;;5032725;28;20181;-70
2022/05/11 06:08:16;;;;;;;19.13;15.50;;;13.50;99.90;;;;;;5034023;28;20449;-70
2022/05/11 06:10:42;;;;;;;25.00;15.17;;;13.50;99.90;;;;;;5033448;28;20178;-70
2022/05/11 06:13:08;;;;;;;29.83;16.50;;;13.50;99.90;;;;;;5033971;28;20433;-65
2022/05/11 06:15:39;;;;;;;19.30;15.73;;;13.60;99.90;;;;;;5034006;28;20369;-69
2022/05/11 06:18:07;;;;;;;21.33;15.20;;;13.70;99.90;;;;;;5033908;28;20401;-70
2022/05/11 06:20:33;;;;;;;21.13;16.13;;;13.70;99.90;;;;;;5032871;28;20460;-68
2022/05/11 06:22:59;;;;;;;22.37;15.47;;;13.70;99.90;;;;;;5033684;28;20442;-70
2022/05/11 06:25:25;;;;;;;26.77;15.77;;;13.70;99.90;;;;;;5033912;28;20938;-65
2022/05/11 06:27:51;;;;;;;19.30;15.67;;;13.80;99.90;;;;;;5033718;28;20191;-70
2022/05/11 06:30:17;;;;;;;22.07;15.03;;;13.90;99.90;;;;;;5032953;28;20171;-70
2022/05/11 06:32:42;;;;;;;23.27;15.47;;;13.90;97.00;;;;;;5033585;28;20564;-70
2022/05/11 06:35:09;;;;;;;20.87;14.40;;;13.90;94.50;;;;;;5033652;28;20935;-69
2022/05/11 06:37:39;;;;;;;23.43;14.40;;;13.90;93.30;;;;;;5033312;28;20156;-65
2022/05/11 06:40:05;;;;;;;22.83;14.43;;;14.00;90.40;;;;;;5033058;28;20752;-65
2022/05/11 06:42:31;;;;;;;21.30;14.60;;;14.00;90.50;;;;;;5032024;28;20405;-69
2022/05/11 06:44:57;;;;;;;24.53;17.07;;;14.10;87.60;;;;;;5033502;28;20405;-65
2022/05/11 06:47:22;;;;;;;29.60;15.37;;;14.20;83.70;;;;;;5033554;28;20218;-70
2022/05/11 06:49:48;;;;;;;21.47;15.50;;;14.30;79.20;;;;;;5032899;28;20209;-69
2022/05/11 06:52:14;;;;;;;19.83;13.67;;;14.30;69.60;;;;;;5033510;28;20560;-66
2022/05/11 07:00:08;;;;;;;19.00;13.30;;;14.50;36.90;;;;;;5032707;28;20426;-65
2022/05/11 07:02:37;;;;;;;21.30;13.97;;;14.50;29.70;;;;;;5033131;28;20547;-66
2022/05/11 07:05:04;;;;;;;19.00;13.57;;;14.60;24.60;;;;;;5033412;28;20883;-65
2022/05/11 07:07:29;;;;;;;19.33;14.17;;;14.60;19.50;;;;;;5033342;28;20506;-65
2022/05/11 07:09:55;;;;;;;16.03;14.33;;;14.70;6.70;;;;;;5032669;28;20544;-65
2022/05/11 07:12:21;;;;;;;18.27;12.67;;;14.80;1.00;;;;;;5033202;28;20176;-65
2022/05/11 07:14:53;;;;;;;16.27;13.70;;;14.80;1.00;;;;;;5032726;28;20456;-69
2022/05/11 07:17:35;;;;;;;16.33;13.17;;;14.80;1.00;;;;;;5037078;28;20413;-71
2022/05/11 07:20:13;;;;;;;17.60;12.90;;;14.90;1.00;;;;;;5036641;28;20411;-65
2022/05/11 07:22:39;;;;;;;27.03;12.17;;;14.90;1.00;;;;;;5037147;28;20426;-65
2022/05/11 07:25:10;;;;;;;13.90;12.40;;;14.90;1.00;;;;;;5037154;28;20405;-65
2022/05/11 07:27:36;;;;;;;18.20;13.40;;;15.00;1.00;;;;;;5037291;28;20723;-70
2022/05/11 07:30:05;;;;;;;13.20;11.10;;;15.10;1.00;;;;;;5036504;28;20373;-65
2022/05/11 07:32:30;;;;;;;14.03;11.03;;;15.00;1.00;;;;;;5036834;28;20430;-66
2022/05/11 07:34:56;;;;;;;17.83;13.90;;;15.10;1.00;;;;;;5036565;28;20854;-66
2022/05/11 07:37:22;;;;;;;15.07;13.23;;;15.20;1.00;;;;;;5037319;28;20162;-70
2022/05/11 07:39:47;;;;;;;15.90;12.57;;;15.20;1.00;;;;;;5036389;28;20171;-70
2022/05/11 07:42:13;;;;;;;16.87;12.07;;;15.10;1.00;;;;;;5036906;28;20184;-70
2022/05/11 07:44:39;;;;;;;14.87;12.43;;;15.10;1.00;;;;;;5036818;28;20633;-65
2022/05/11 07:47:06;;;;;;;13.90;10.73;;;15.20;1.00;;;;;;5036546;28;20405;-71
2022/05/11 07:49:32;;;;;;;13.53;11.30;;;15.20;1.00;;;;;;5035739;28;20533;-65
2022/05/11 07:51:57;;;;;;;21.73;10.50;;;15.20;1.00;;;;;;5036749;28;20431;-64
2022/05/11 07:54:23;;;;;;;12.67;11.37;;;15.20;1.00;;;;;;5036842;28;20168;-65
2022/05/11 07:59:56;;;;;;;15.93;10.40;;;15.40;1.00;;;;;;5035954;28;20810;-69
2022/05/11 08:02:29;;;;;;;13.47;10.53;;;15.50;1.00;;;;;;5036405;28;20430;-69
2022/05/11 08:05:00;;;;;;;15.97;11.30;;;15.60;1.00;;;;;;5036286;28;21100;-65
2022/05/11 08:07:29;;;;;;;17.07;11.07;;;15.70;1.00;;;;;;5035914;28;20417;-70
2022/05/11 08:09:59;;;;;;;18.47;12.57;;;15.80;1.00;;;;;;5035628;28;20424;-67
2022/05/11 08:12:26;;;;;;;16.70;11.77;;;15.90;1.00;;;;;;5036294;28;20455;-65
2022/05/11 08:14:53;;;;;;;12.33;10.17;;;16.00;1.00;;;;;;5036158;28;20447;-65
2022/05/11 08:17:31;;;;;;;11.30;10.10;;;16.10;1.00;;;;;;5036100;28;20805;-65
2022/05/11 08:19:59;;;;;;;10.13;8.50;;;16.00;1.00;;;;;;5035489;28;20405;-71
2022/05/11 08:22:26;;;;;;;11.00;9.30;;;16.00;1.00;;;;;;5034793;28;20795;-69
2022/05/11 08:24:51;;;;;;;12.77;9.97;;;15.90;1.00;;;;;;5035935;28;20413;-70
2022/05/11 08:27:21;;;;;;;14.50;10.90;;;15.80;1.00;;;;;;5035191;28;20394;-69
2022/05/11 08:35:16;;;;;;;16.07;9.77;;;15.90;1.00;;;;;;5036061;28;20543;-66
2022/05/11 08:37:43;;;;;;;12.57;10.00;;;16.00;1.00;;;;;;5035783;28;20881;-71
2022/05/11 08:40:32;;;;;;;14.90;11.17;;;16.10;1.00;;;;;;5035101;28;20787;-64
2022/05/11 08:42:57;;;;;;;14.00;9.73;;;16.20;1.00;;;;;;5031620;28;20588;-71
2022/05/11 08:45:52;;;;;;;15.10;10.03;;;16.50;1.00;;;;;;5035003;28;20923;-70
2022/05/11 08:48:49;;;;;;;12.60;9.20;;;16.70;1.00;;;;;;5035711;28;20203;-70
2022/05/11 08:51:25;;;;;;;11.10;8.90;;;16.90;1.00;;;;;;5035533;28;20468;-70
2022/05/11 08:54:06;;;;;;;9.93;8.43;;;17.10;99.90;;;;;;5035526;28;20445;-65
2022/05/11 08:56:33;;;;;;;13.03;8.10;;;17.20;99.90;;;;;;5035775;28;20881;-65
2022/05/11 08:59:00;;;;;;;10.80;9.00;;;17.30;99.90;;;;;;5034978;28;20406;-64
2022/05/11 09:01:40;;;;;;;13.90;8.77;;;17.30;99.90;;;;;;5035504;28;20407;-70
2022/05/11 09:04:11;;;;;;;11.77;8.27;;;17.30;99.90;;;;;;5034947;28;20433;-70
2022/05/11 09:06:37;;;;;;;11.90;7.60;;;17.30;99.90;;;;;;5035377;28;20402;-70
2022/05/11 09:09:03;;;;;;;11.10;8.70;;;17.40;99.90;;;;;;5034500;28;20457;-64
2022/05/11 09:11:43;;;;;;;10.13;8.07;;;17.60;99.90;;;;;;5035420;28;20489;-71
2022/05/11 09:14:15;;;;;;;13.60;7.77;;;18.10;99.90;;;;;;5035297;28;20406;-65
2022/05/11 09:16:50;;;;;;;8.47;7.13;;;18.60;99.90;;;;;;5035209;28;20402;-70
2022/05/11 09:19:21;;;;;;;8.93;7.67;;;18.90;99.90;;;;;;5034062;28;20851;-70
2022/05/11 09:22:05;;;;;;;7.77;6.90;;;18.80;99.90;;;;;;5034865;28;20406;-70
2022/05/11 09:24:36;;;;;;;12.07;7.77;;;18.60;99.90;;;;;;5035094;28;20411;-70
2022/05/11 09:27:09;;;;;;;12.00;7.80;;;18.50;99.90;;;;;;5033950;28;20413;-64
2022/05/11 09:29:43;;;;;;;9.00;7.70;;;18.30;99.90;;;;;;5034212;28;20500;-70
2022/05/11 09:32:37;;;;;;;13.07;8.47;;;18.20;99.90;;;;;;5034660;28;20915;-65
2022/05/11 09:35:25;;;;;;;12.23;8.07;;;18.40;99.90;;;;;;5034749;28;20401;-64
2022/05/11 09:38:26;;;;;;;9.40;7.40;;;18.50;99.90;;;;;;5033731;28;20403;-69
2022/05/11 09:41:00;;;;;;;14.73;7.77;;;18.70;99.90;;;;;;5034131;28;20875;-63
2022/05/11 09:43:46;;;;;;;10.50;7.60;;;18.70;99.90;;;;;;5034499;28;20425;-64
2022/05/11 09:46:28;;;;;;;12.67;7.97;;;18.90;99.90;;;;;;5034449;28;20382;-64
2022/05/11 09:48:57;;;;;;;9.00;7.30;;;18.90;99.90;;;;;;5033906;28;20454;-69
2022/05/11 09:51:41;;;;;;;10.60;7.43;;;19.20;99.90;;;;;;5034678;28;20398;-69
2022/05/11 09:54:32;;;;;;;10.10;7.63;;;19.30;99.90;;;;;;5034099;28;20426;-69
2022/05/11 09:57:00;;;;;;;12.13;7.10;;;19.30;99.90;;;;;;5034615;28;20883;-63
2022/05/11 09:59:31;;;;;;;8.20;7.37;;;19.40;99.90;;;;;;5033598;28;20961;-63
2022/05/11 10:02:50;;;;;;;8.50;7.03;;;19.40;99.90;;;;;;5034107;28;20418;-69
2022/05/11 10:05:26;;;;;;;8.97;6.40;;;19.40;99.90;;;;;;5032219;28;20445;-70
2022/05/11 10:08:15;;;;;;;11.50;6.70;;;19.40;99.90;;;;;;5033909;28;20408;-70
2022/05/11 10:10:50;;;;;;;9.33;6.57;;;19.70;99.90;;;;;;5033168;28;20418;-70
2022/05/11 10:13:30;;;;;;;7.53;6.00;;;19.90;99.90;;;;;;5034082;28;20803;-64
2022/05/11 10:21:56;;;;;;;7.33;5.63;;;19.80;99.90;;;;;;5033991;28;20957;-64
2022/05/11 10:24:57;;;;;;;6.00;5.33;;;19.90;99.90;;;;;;5033822;28;20407;-64
2022/05/11 10:27:41;;;;;;;5.30;4.57;;;19.80;99.90;;;;;;5033366;28;20462;-65
2022/05/11 10:30:10;;;;;;;7.40;4.97;;;19.50;99.90;;;;;;5033144;28;20402;-64
2022/05/11 10:32:42;;;;;;;6.67;4.60;;;19.60;99.90;;;;;;5033607;28;20458;-64
2022/05/11 10:35:28;;;;;;;10.27;6.23;;;19.90;99.90;;;;;;5033828;28;20873;-64
2022/05/11 10:38:05;;;;;;;9.20;6.13;;;20.30;99.90;;;;;;5033660;28;20405;-64
2022/05/11 10:40:36;;;;;;;6.83;5.30;;;20.50;99.90;;;;;;5032892;28;20398;-64
2022/05/11 10:43:32;;;;;;;9.03;5.73;;;20.40;99.90;;;;;;5033456;28;20965;-64
2022/05/11 10:46:14;;;;;;;10.63;5.80;;;20.10;99.90;;;;;;5031856;28;20817;-63
2022/05/11 10:49:10;;;;;;;9.33;6.53;;;19.90;99.90;;;;;;5032651;28;20445;-64
2022/05/11 10:52:11;;;;;;;12.30;6.60;;;19.40;99.90;;;;;;5033406;28;20481;-70
2022/05/11 10:54:52;;;;;;;7.80;4.97;;;19.20;99.90;;;;;;5031168;28;20422;-64
2022/05/11 10:57:43;;;;;;;6.63;5.40;;;19.40;99.90;;;;;;5033241;28;20406;-63
2022/05/11 11:00:22;;;;;;;10.70;4.73;;;19.50;99.90;;;;;;5032856;28;20401;-64
2022/05/11 11:03:08;;;;;;;9.37;5.50;;;19.70;99.90;;;;;;5032813;28;20437;-64
2022/05/11 11:05:40;;;;;;;14.43;4.27;;;19.70;99.90;;;;;;5033361;28;20398;-69
2022/05/11 11:08:08;;;;;;;8.13;4.20;;;20.10;99.90;;;;;;5032030;28;20663;-64
2022/05/11 11:10:56;;;;;;;11.23;5.20;;;20.70;99.90;;;;;;5031485;28;20477;-69
2022/05/11 11:13:34;;;;;;;7.93;3.67;;;21.00;99.90;;;;;;5033153;28;20422;-69
2022/05/11 11:16:02;;;;;;;4.73;4.33;;;21.30;99.90;;;;;;5032046;28;20763;-70
2022/05/11 11:18:34;;;;;;;5.97;4.03;;;21.20;99.90;;;;;;5032915;28;20398;-69
2022/05/11 11:21:04;;;;;;;8.83;3.83;;;21.30;99.90;;;;;;5032712;28;20402;-70
2022/05/11 11:23:33;;;;;;;5.10;4.10;;;21.30;99.90;;;;;;5033230;28;20942;-64
2022/05/11 11:26:13;;;;;;;6.80;6.10;;;21.10;99.90;;;;;;5033098;28;20403;-64
2022/05/11 11:28:39;;;;;;;5.57;4.80;;;20.50;96.10;;;;;;5031086;28;20472;-65
2022/05/11 11:31:14;;;;;;;6.73;5.30;;;20.30;97.90;;;;;;5033053;28;20486;-64
2022/05/11 11:34:02;;;;;;;6.70;4.20;;;20.60;99.90;;;;;;5033170;28;20479;-70
2022/05/11 11:36:37;;;;;;;5.40;3.70;;;21.30;99.90;;;;;;5032944;28;20452;-70
2022/05/11 11:39:09;;;;;;;10.80;4.83;;;22.10;99.90;;;;;;5031057;28;20779;-61
2022/05/11 11:41:41;;;;;;;5.33;3.70;;;23.00;96.80;;;;;;5032526;28;20401;-64
2022/05/11 11:44:26;;;;;;;5.50;3.93;;;23.40;97.00;;;;;;5033003;28;20406;-61
2022/05/11 11:46:52;;;;;;;6.40;3.53;;;23.40;94.80;;;;;;5032796;28;20411;-65
2022/05/11 11:49:18;;;;;;;4.57;3.40;;;23.20;91.80;;;;;;5032065;28;20459;-62
2022/05/11 11:51:50;;;;;;;5.50;3.80;;;23.70;90.40;;;;;;5032960;28;20394;-62
2022/05/11 11:54:37;;;;;;;6.90;3.70;;;24.20;89.00;;;;;;5033215;28;20171;-61
2022/05/11 11:57:26;;;;;;;4.70;3.13;;;24.40;74.00;;;;;;5032894;28;20390;-67
2022/05/11 11:59:59;;;;;;;3.43;2.70;;;23.90;64.10;;;;;;5031921;28;20429;-64
2022/05/11 12:02:28;;;;;;;4.90;3.37;;;23.40;57.80;;;;;;5034874;28;20417;-67
2022/05/11 12:05:20;;;;;;;7.23;2.67;;;23.40;55.20;;;;;;5036625;28;20416;-67
2022/05/11 12:16:45;;;;;;;3.50;3.10;;;23.20;29.30;;;;;;5036465;28;20393;-67
2022/05/11 12:19:14;;;;;;;2.80;2.60;;;23.40;34.60;;;;;;5035324;28;20472;-67
2022/05/11 12:21:52;;;;;;;3.80;3.50;;;23.60;31.50;;;;;;5036299;28;20430;-63
2022/05/11 12:24:27;;;;;;;5.53;3.20;;;23.60;29.80;;;;;;5036131;28;20454;-67
2022/05/11 12:26:59;;;;;;;4.00;2.40;;;24.30;35.90;;;;;;5036171;28;20447;-61
2022/05/11 12:32:10;;;;;;;10.30;3.33;;;24.00;28.20;;;;;;5036199;28;20506;-69
2022/05/11 12:34:45;;;;;;;10.37;3.57;;;24.50;38.90;;;;;;5035504;28;20434;-62
2022/05/11 12:37:23;;;;;;;8.80;3.83;;;25.30;35.40;;;;;;5035805;28;20763;-67
2022/05/11 12:39:58;;;;;;;5.70;3.43;;;25.60;40.80;;;;;;5035273;28;20406;-68
2022/05/11 12:42:49;;;;;;;6.90;4.30;;;25.80;37.80;;;;;;5035707;28;20424;-66
2022/05/11 12:45:28;;;;;;;10.10;4.30;;;25.00;26.70;;;;;;5035663;28;20490;-65
2022/05/11 12:47:56;;;;;;;5.57;4.07;;;24.10;19.30;;;;;;5035743;28;20414;-63
2022/05/11 12:50:29;;;;;;;10.03;4.03;;;23.60;25.50;;;;;;5035005;28;20430;-69
2022/05/11 12:53:15;;;;;;;4.57;4.20;;;23.20;22.20;;;;;;5034068;28;20516;-68
2022/05/11 12:55:41;;;;;;;5.77;3.90;;;23.00;18.50;;;;;;5035272;28;20489;-63
2022/05/11 12:58:06;;;;;;;8.10;4.80;;;22.70;25.60;;;;;;5035166;28;20402;-63
2022/05/11 13:00:35;;;;;;;6.43;4.53;;;22.70;25.80;;;;;;5034644;28;20820;-63
2022/05/11 13:03:24;;;;;;;4.17;3.30;;;22.50;19.20;;;;;;5035280;28;20290;-63
2022/05/11 13:05:53;;;;;;;7.60;3.93;;;22.50;23.40;;;;;;5035297;28;20414;-64
2022/05/11 13:08:20;;;;;;;6.90;4.00;;;22.50;35.30;;;;;;5035273;28;20802;-63
2022/05/11 13:10:48;;;;;;;9.37;4.10;;;22.40;20.20;;;;;;5034479;28;20410;-62
2022/05/11 13:13:19;;;;;;;7.40;4.17;;;21.80;14.70;;;;;;5035309;28;20914;-69
2022/05/11 13:15:47;;;;;;;4.47;3.67;;;21.50;14.50;;;;;;5035223;28;20830;-63
2022/05/11 13:18:33;;;;;;;4.53;3.60;;;21.00;13.50;;;;;;5035287;28;20403;-64
2022/05/11 13:21:01;;;;;;;8.37;5.00;;;20.60;18.70;;;;;;5034919;28;20748;-62
2022/05/11 13:23:47;;;;;;;6.27;4.63;;;20.50;20.40;;;;;;5034853;28;20429;-69
2022/05/11 13:26:37;;;;;;;5.93;4.60;;;20.50;23.00;;;;;;5034043;28;20422;-63
2022/05/11 13:29:11;;;;;;;4.73;4.33;;;20.80;23.30;;;;;;5033905;28;20493;-69
2022/05/11 13:31:37;;;;;;;10.03;4.00;;;21.50;25.90;;;;;;5034796;28;20402;-68